Time;durP1;ratioP1;P1;durP2;ratioP2;P2;SDS_P1;SDS_P2;PMS_P1;PMS_P2;Temp;Humidity;BMP_temperature;BMP_pressure;BME280_temperature;BME280_humidity;BME280_pressure;Samples;Min_cycle;Max_cycle;Signal;HPM_P1;HPM_P2
2022/04/03 00:00:15;;;;;;;12.70;11.40;;;1.30;99.90;;;;;;5004461;28;20226;-81
2022/04/03 00:02:43;;;;;;;16.70;12.50;;;1.30;99.90;;;;;;5005026;28;20212;-80
2022/04/03 00:05:10;;;;;;;11.75;10.50;;;1.30;99.90;;;;;;5005007;28;20268;-81
2022/04/03 00:07:37;;;;;;;13.85;11.52;;;1.30;99.90;;;;;;5004849;28;20208;-80
2022/04/03 00:10:04;;;;;;;13.18;11.52;;;1.30;99.90;;;;;;5004219;28;20236;-81
2022/04/03 00:12:31;;;;;;;13.95;11.40;;;1.30;99.90;;;;;;5003989;28;20953;-80
2022/04/03 00:14:58;;;;;;;16.83;10.85;;;1.30;99.90;;;;;;5003867;28;20288;-81
2022/04/03 00:17:24;;;;;;;13.48;10.23;;;1.20;99.90;;;;;;5004124;28;20208;-81
2022/04/03 00:19:55;;;;;;;15.02;13.32;;;1.20;99.90;;;;;;5002939;28;20851;-81
2022/04/03 00:22:24;;;;;;;15.63;10.52;;;1.20;99.90;;;;;;5003054;28;20748;-81
2022/04/03 00:24:51;;;;;;;15.50;11.65;;;1.20;99.90;;;;;;5003993;28;20606;-81
2022/04/03 00:27:18;;;;;;;12.65;10.27;;;1.20;99.90;;;;;;5004053;28;20203;-81
2022/04/03 00:29:45;;;;;;;14.80;10.32;;;1.20;99.90;;;;;;5003802;28;20223;-80
2022/04/03 00:32:11;;;;;;;14.85;12.45;;;1.20;99.90;;;;;;5003191;28;20209;-80
2022/04/03 00:34:38;;;;;;;13.27;11.05;;;1.20;99.90;;;;;;5003198;28;20594;-81
2022/04/03 00:37:06;;;;;;;16.55;12.60;;;1.20;99.90;;;;;;5002357;28;20208;-81
2022/04/03 00:39:33;;;;;;;15.63;11.95;;;1.10;99.90;;;;;;5002873;28;20238;-80
2022/04/03 00:42:00;;;;;;;14.30;12.73;;;1.20;99.90;;;;;;5003249;28;20215;-81
2022/04/03 00:44:27;;;;;;;16.30;12.75;;;1.10;99.90;;;;;;5003550;28;20580;-80
2022/04/03 00:46:55;;;;;;;13.40;11.05;;;1.20;99.90;;;;;;5003265;28;20206;-81
2022/04/03 00:49:22;;;;;;;16.13;12.40;;;1.20;99.90;;;;;;5004075;28;20236;-81
2022/04/03 00:51:49;;;;;;;12.15;10.77;;;1.20;99.90;;;;;;5002857;28;20208;-81
2022/04/03 00:54:17;;;;;;;17.50;11.32;;;1.30;99.90;;;;;;5004612;28;20294;-81
2022/04/03 00:56:44;;;;;;;12.75;10.88;;;1.20;99.90;;;;;;5003701;28;20211;-81
2022/04/03 00:59:12;;;;;;;14.63;11.85;;;1.20;99.90;;;;;;5003519;28;20227;-80
2022/04/03 01:01:41;;;;;;;16.77;12.55;;;1.20;99.90;;;;;;5002321;28;20200;-80
2022/04/03 01:04:08;;;;;;;16.13;11.90;;;1.20;99.90;;;;;;5003370;28;20209;-80
2022/04/03 01:06:35;;;;;;;16.42;11.18;;;1.20;99.90;;;;;;5002718;28;20227;-80
2022/04/03 01:09:03;;;;;;;14.77;11.30;;;1.10;99.90;;;;;;5003026;28;20451;-80
2022/04/03 01:11:31;;;;;;;15.98;12.15;;;1.10;99.90;;;;;;5002819;28;20219;-80
2022/04/03 01:13:58;;;;;;;12.73;11.50;;;1.10;99.90;;;;;;5003711;28;20577;-81
2022/04/03 01:16:25;;;;;;;13.45;11.43;;;1.10;99.90;;;;;;5003544;28;20226;-81
2022/04/03 01:18:52;;;;;;;14.25;11.10;;;1.20;99.90;;;;;;5003022;28;20212;-80
2022/04/03 01:21:19;;;;;;;12.80;11.27;;;1.20;99.90;;;;;;5002580;28;20218;-80
2022/04/03 01:23:46;;;;;;;14.57;10.77;;;1.10;99.90;;;;;;5003450;28;20678;-80
2022/04/03 01:26:15;;;;;;;12.73;11.45;;;1.10;99.90;;;;;;5002230;28;20203;-81
2022/04/03 01:28:41;;;;;;;11.63;9.82;;;1.00;99.90;;;;;;5003653;28;20704;-80
2022/04/03 01:31:09;;;;;;;14.00;11.15;;;1.00;99.90;;;;;;5002837;28;20232;-81
2022/04/03 01:33:36;;;;;;;12.90;11.48;;;1.00;99.90;;;;;;5002335;28;20202;-81
2022/04/03 01:36:03;;;;;;;20.38;11.85;;;0.90;99.90;;;;;;5003016;28;20212;-81
2022/04/03 01:38:29;;;;;;;12.73;10.90;;;1.00;99.90;;;;;;5003448;28;20225;-81
2022/04/03 01:40:56;;;;;;;16.13;11.52;;;1.00;99.90;;;;;;5002592;28;20234;-81
2022/04/03 01:43:24;;;;;;;11.63;9.55;;;1.00;99.90;;;;;;5002532;28;20199;-81
2022/04/03 01:45:51;;;;;;;17.40;11.65;;;1.10;99.90;;;;;;5002797;28;20320;-81
2022/04/03 01:48:18;;;;;;;17.15;12.00;;;1.00;99.90;;;;;;5002711;28;20200;-81
2022/04/03 01:50:45;;;;;;;16.08;10.88;;;1.10;99.90;;;;;;5003249;28;20597;-81
2022/04/03 01:53:12;;;;;;;13.23;10.35;;;1.10;99.90;;;;;;5002618;28;20737;-81
2022/04/03 01:55:40;;;;;;;16.48;11.50;;;1.00;99.90;;;;;;5002823;28;20200;-80
2022/04/03 01:58:09;;;;;;;13.68;11.55;;;1.00;99.90;;;;;;5002923;28;20210;-81
2022/04/03 02:00:38;;;;;;;16.27;12.13;;;1.10;99.90;;;;;;5002622;28;20288;-80
2022/04/03 02:03:05;;;;;;;20.58;12.35;;;1.10;99.90;;;;;;5001283;28;20199;-81
2022/04/03 02:05:32;;;;;;;14.50;13.05;;;1.10;99.90;;;;;;5002935;28;20587;-81
2022/04/03 02:07:58;;;;;;;14.02;12.18;;;1.10;99.90;;;;;;5002933;28;20196;-81
2022/04/03 02:10:25;;;;;;;10.73;9.60;;;1.00;99.90;;;;;;5002143;28;20235;-81
2022/04/03 02:12:52;;;;;;;11.93;10.77;;;1.00;99.90;;;;;;5002238;28;20213;-81
2022/04/03 02:15:19;;;;;;;13.82;11.07;;;1.00;99.90;;;;;;5002152;28;20219;-81
2022/04/03 02:17:47;;;;;;;17.38;12.57;;;1.00;99.90;;;;;;5001928;28;20627;-81
2022/04/03 02:20:14;;;;;;;19.10;13.02;;;1.00;99.90;;;;;;5003054;28;20240;-81
2022/04/03 02:22:40;;;;;;;12.75;10.73;;;1.00;99.90;;;;;;5001823;28;20219;-81
2022/04/03 02:25:11;;;;;;;13.50;10.60;;;1.00;99.90;;;;;;5001672;28;20204;-81
2022/04/03 02:27:38;;;;;;;12.23;10.75;;;1.10;99.90;;;;;;5002194;28;20210;-81
2022/04/03 02:30:08;;;;;;;15.35;12.95;;;1.10;99.90;;;;;;5002284;28;20220;-81
2022/04/03 02:32:36;;;;;;;14.18;12.73;;;1.00;99.90;;;;;;5001901;28;20208;-81
2022/04/03 02:35:06;;;;;;;13.10;10.85;;;1.10;99.90;;;;;;5002592;28;20220;-81
2022/04/03 02:37:32;;;;;;;13.45;9.90;;;1.10;99.90;;;;;;5003544;28;20274;-81
2022/04/03 02:39:59;;;;;;;12.88;10.10;;;1.00;99.90;;;;;;5002091;28;20228;-81
2022/04/03 02:42:26;;;;;;;12.85;9.63;;;1.10;99.90;;;;;;5012235;28;20206;-80
2022/04/03 02:44:53;;;;;;;14.05;11.68;;;1.10;99.90;;;;;;5012281;28;20295;-80
2022/04/03 02:47:20;;;;;;;15.32;13.13;;;1.10;99.90;;;;;;5009419;28;20216;-81
2022/04/03 02:49:46;;;;;;;14.20;11.95;;;1.10;99.90;;;;;;5001791;28;20234;-81
2022/04/03 02:52:15;;;;;;;17.35;11.95;;;1.20;99.90;;;;;;4999650;28;20228;-80
2022/04/03 02:54:42;;;;;;;12.60;10.75;;;1.20;99.90;;;;;;5000836;28;20581;-81
2022/04/03 02:57:09;;;;;;;17.90;12.40;;;1.20;99.90;;;;;;4999982;28;20550;-81
2022/04/03 02:59:36;;;;;;;12.65;10.25;;;1.20;99.90;;;;;;5000268;28;20227;-81
2022/04/03 03:02:03;;;;;;;13.60;11.80;;;1.30;99.90;;;;;;4999874;28;20197;-81
2022/04/03 03:04:31;;;;;;;16.77;10.95;;;1.20;99.90;;;;;;5003858;28;20734;-81
2022/04/03 03:06:58;;;;;;;13.02;10.32;;;1.20;99.90;;;;;;5004028;28;20238;-81
2022/04/03 03:09:26;;;;;;;14.45;11.15;;;1.10;99.90;;;;;;5004299;28;20231;-81
2022/04/03 03:11:52;;;;;;;14.13;11.00;;;1.20;99.90;;;;;;5004486;28;20223;-81
2022/04/03 03:14:19;;;;;;;17.60;11.77;;;1.20;99.90;;;;;;5005668;28;20209;-81
2022/04/03 03:16:46;;;;;;;16.75;11.80;;;1.30;99.90;;;;;;5005163;28;20203;-81
2022/04/03 03:19:13;;;;;;;16.08;11.95;;;1.30;99.90;;;;;;5021499;22;20701;-80
2022/04/03 03:21:39;;;;;;;16.45;12.18;;;1.30;99.90;;;;;;5002252;28;20241;-81
2022/04/03 03:24:06;;;;;;;18.15;11.90;;;1.30;99.90;;;;;;5003513;28;20203;-80
2022/04/03 03:26:35;;;;;;;12.85;11.52;;;1.30;99.90;;;;;;5003364;28;20207;-80
2022/04/03 03:29:01;;;;;;;14.95;11.27;;;1.30;99.90;;;;;;5004043;28;20207;-80
2022/04/03 03:31:28;;;;;;;18.52;12.43;;;1.30;99.90;;;;;;5003096;28;20233;-81
2022/04/03 03:33:55;;;;;;;14.05;10.95;;;1.30;99.90;;;;;;5003977;28;20204;-80
2022/04/03 03:36:22;;;;;;;12.68;9.18;;;1.30;99.90;;;;;;5004009;28;20214;-80
2022/04/03 03:38:49;;;;;;;16.00;11.48;;;1.30;99.90;;;;;;5004043;28;20296;-81
2022/04/03 03:41:16;;;;;;;16.38;12.32;;;1.30;99.90;;;;;;5004143;28;20293;-80
2022/04/03 03:43:44;;;;;;;13.23;11.95;;;1.30;99.90;;;;;;5003527;28;20486;-80
2022/04/03 03:46:11;;;;;;;12.85;11.35;;;1.30;99.90;;;;;;5003568;28;20204;-81
2022/04/03 03:48:38;;;;;;;14.23;12.20;;;1.40;99.90;;;;;;5003549;28;20218;-80
2022/04/03 03:51:05;;;;;;;13.32;10.60;;;1.40;99.90;;;;;;5003338;28;20224;-80
2022/04/03 03:53:33;;;;;;;17.02;9.68;;;1.40;99.90;;;;;;5003707;28;20205;-80
2022/04/03 03:56:00;;;;;;;12.43;10.05;;;1.40;99.90;;;;;;5003901;28;20207;-80
2022/04/03 03:58:27;;;;;;;17.23;11.10;;;1.40;99.90;;;;;;5004084;28;20653;-80
2022/04/03 04:00:55;;;;;;;13.38;10.85;;;1.40;99.90;;;;;;5003469;28;20220;-81
2022/04/03 04:03:21;;;;;;;13.32;10.65;;;1.40;99.90;;;;;;5003645;28;20220;-81
2022/04/03 04:05:48;;;;;;;14.25;12.25;;;1.30;99.90;;;;;;5003619;28;20204;-80
2022/04/03 04:08:15;;;;;;;18.00;11.63;;;1.20;99.90;;;;;;5003575;28;20237;-80
2022/04/03 04:10:41;;;;;;;12.60;10.85;;;1.20;99.90;;;;;;5003341;28;20227;-80
2022/04/03 04:13:08;;;;;;;14.00;10.85;;;1.20;99.90;;;;;;5004421;28;20214;-80
2022/04/03 04:15:35;;;;;;;22.80;13.93;;;1.30;99.90;;;;;;5002622;28;20212;-80
2022/04/03 04:18:03;;;;;;;12.82;10.40;;;1.20;99.90;;;;;;5003580;28;20223;-80
2022/04/03 04:20:30;;;;;;;13.68;10.73;;;1.20;99.90;;;;;;5002154;28;20229;-80
2022/04/03 04:22:57;;;;;;;10.75;9.63;;;1.20;99.90;;;;;;5002226;28;20213;-80
2022/04/03 04:25:24;;;;;;;12.90;11.50;;;1.20;99.90;;;;;;5002028;28;20208;-80
2022/04/03 04:27:50;;;;;;;14.13;11.30;;;1.20;99.90;;;;;;5002737;28;20213;-80
2022/04/03 04:30:17;;;;;;;11.45;9.75;;;1.20;99.90;;;;;;5002194;28;20228;-80
2022/04/03 04:32:45;;;;;;;13.40;10.85;;;1.20;99.90;;;;;;5002168;28;20228;-80
2022/04/03 04:35:13;;;;;;;12.40;11.07;;;1.20;99.90;;;;;;5002311;28;20232;-80
2022/04/03 04:37:41;;;;;;;15.23;11.93;;;1.20;99.90;;;;;;5002069;28;20238;-80
2022/04/03 04:40:10;;;;;;;15.52;10.93;;;1.20;99.90;;;;;;5002648;28;20228;-81
2022/04/03 04:42:37;;;;;;;14.38;11.48;;;1.30;99.90;;;;;;5003338;28;20262;-80
2022/04/03 04:45:04;;;;;;;12.73;9.93;;;1.20;99.90;;;;;;5002013;28;20207;-81
2022/04/03 04:47:34;;;;;;;13.80;11.75;;;1.30;99.90;;;;;;5002680;28;20212;-80
2022/04/03 04:50:01;;;;;;;11.98;9.90;;;1.20;99.90;;;;;;4999857;28;20810;-79
2022/04/03 04:52:30;;;;;;;15.80;11.55;;;1.20;99.90;;;;;;4999425;28;20617;-79
2022/04/03 04:54:56;;;;;;;15.75;10.90;;;1.20;99.90;;;;;;5000241;28;20720;-81
2022/04/03 04:57:23;;;;;;;18.92;12.88;;;1.20;99.90;;;;;;5002583;28;20204;-80
2022/04/03 04:59:50;;;;;;;15.30;11.00;;;1.30;99.90;;;;;;5001526;28;20228;-81
2022/04/03 05:02:17;;;;;;;15.25;12.40;;;1.20;99.90;;;;;;5003077;28;20204;-80
2022/04/03 05:04:43;;;;;;;13.95;11.23;;;1.30;99.90;;;;;;5002064;28;20197;-80
2022/04/03 05:07:11;;;;;;;14.38;12.35;;;1.20;99.90;;;;;;5000306;28;20216;-79
2022/04/03 05:09:39;;;;;;;13.82;11.13;;;1.20;99.90;;;;;;5002427;28;20284;-80
2022/04/03 05:12:08;;;;;;;12.55;10.77;;;1.20;99.90;;;;;;5003077;28;20227;-80
2022/04/03 05:14:35;;;;;;;15.63;12.02;;;1.30;99.90;;;;;;5003591;28;20212;-80
2022/04/03 05:17:02;;;;;;;12.05;10.68;;;1.10;99.90;;;;;;4999802;28;20215;-80
2022/04/03 05:19:29;;;;;;;22.25;11.90;;;1.10;99.90;;;;;;4999570;28;20235;-80
2022/04/03 05:21:56;;;;;;;14.35;12.23;;;1.20;99.90;;;;;;5001052;28;20211;-80
2022/04/03 05:24:23;;;;;;;13.52;10.88;;;1.20;99.90;;;;;;5001145;28;20218;-80
2022/04/03 05:26:51;;;;;;;14.43;10.18;;;1.30;99.90;;;;;;5000726;28;20216;-79
2022/04/03 05:29:18;;;;;;;14.68;10.90;;;1.30;99.90;;;;;;5001283;28;20208;-80
2022/04/03 05:31:45;;;;;;;15.88;12.10;;;1.30;99.90;;;;;;5005383;28;20231;-80
2022/04/03 05:34:11;;;;;;;16.08;12.13;;;1.30;99.90;;;;;;4987390;28;20233;-81
2022/04/03 05:36:39;;;;;;;15.75;13.35;;;1.30;99.90;;;;;;4983390;28;20213;-80
2022/04/03 05:39:06;;;;;;;17.50;12.60;;;1.30;99.90;;;;;;5000816;28;20571;-81
2022/04/03 05:41:33;;;;;;;12.93;9.82;;;1.30;99.90;;;;;;5001637;28;20232;-80
2022/04/03 05:44:02;;;;;;;15.55;11.80;;;1.40;99.90;;;;;;5001930;28;20204;-81
2022/04/03 05:46:29;;;;;;;14.10;10.40;;;1.40;99.90;;;;;;5002077;28;20215;-80
2022/04/03 05:48:56;;;;;;;19.42;12.80;;;1.40;99.90;;;;;;5002747;28;20216;-81
2022/04/03 05:51:22;;;;;;;14.45;11.55;;;1.40;99.90;;;;;;5001364;28;20250;-80
2022/04/03 05:53:49;;;;;;;14.85;10.90;;;1.40;99.90;;;;;;5002053;28;20219;-80
2022/04/03 05:56:16;;;;;;;12.52;10.15;;;1.50;99.90;;;;;;5001195;28;20207;-82
2022/04/03 05:58:43;;;;;;;20.85;12.07;;;1.50;99.90;;;;;;5002110;28;20203;-79
2022/04/03 06:01:11;;;;;;;13.82;11.13;;;1.50;99.90;;;;;;5001578;28;20236;-80
2022/04/03 06:03:37;;;;;;;14.82;11.52;;;1.60;99.90;;;;;;5001039;28;20689;-80
2022/04/03 06:06:04;;;;;;;16.42;11.18;;;1.70;99.90;;;;;;5002329;28;20215;-81
2022/04/03 06:08:31;;;;;;;14.30;11.38;;;1.80;99.90;;;;;;5001150;28;20217;-80
2022/04/03 06:10:58;;;;;;;11.57;10.38;;;2.00;99.90;;;;;;5000824;28;20232;-80
2022/04/03 06:13:25;;;;;;;17.52;11.30;;;2.10;99.90;;;;;;5001145;28;20217;-80
2022/04/03 06:15:52;;;;;;;13.85;10.25;;;2.20;99.90;;;;;;5001705;28;20223;-79
2022/04/03 06:18:20;;;;;;;13.45;9.55;;;2.20;99.90;;;;;;5000889;28;20660;-81
2022/04/03 06:20:47;;;;;;;12.35;9.40;;;2.30;99.90;;;;;;5000982;28;20731;-80
2022/04/03 06:23:15;;;;;;;9.95;9.02;;;2.40;99.90;;;;;;5001268;28;20234;-80
2022/04/03 06:25:42;;;;;;;9.55;8.55;;;2.40;99.90;;;;;;5002049;28;20209;-81
2022/04/03 06:28:09;;;;;;;10.65;9.55;;;2.40;99.90;;;;;;5004070;28;20203;-82
2022/04/03 06:30:37;;;;;;;11.35;10.20;;;2.50;99.90;;;;;;5001575;28;20231;-81
2022/04/03 06:33:04;;;;;;;12.63;8.07;;;2.60;99.90;;;;;;4999974;28;20249;-82
2022/04/03 06:35:32;;;;;;;10.10;8.30;;;2.50;99.90;;;;;;4999200;28;20213;-82
2022/04/03 06:37:59;;;;;;;8.48;7.65;;;2.60;99.90;;;;;;5000621;28;20212;-81
2022/04/03 06:40:26;;;;;;;8.68;6.75;;;2.60;99.90;;;;;;4999859;28;20227;-81
2022/04/03 06:42:53;;;;;;;8.63;7.82;;;2.60;99.90;;;;;;5000611;28;20208;-80
2022/04/03 06:45:21;;;;;;;12.93;8.20;;;2.60;99.90;;;;;;5001425;28;20213;-80
2022/04/03 06:47:47;;;;;;;10.13;7.80;;;2.70;99.90;;;;;;5000649;28;20204;-81
2022/04/03 06:50:15;;;;;;;10.88;7.32;;;2.70;99.90;;;;;;5001174;28;20237;-81
2022/04/03 06:52:43;;;;;;;10.07;8.13;;;2.70;99.90;;;;;;5000742;28;20237;-81
2022/04/03 06:55:10;;;;;;;11.18;7.22;;;2.80;99.90;;;;;;4998564;28;20700;-81
2022/04/03 06:57:37;;;;;;;8.90;7.97;;;2.90;99.90;;;;;;4998018;28;20203;-81
2022/04/03 07:00:06;;;;;;;13.93;9.50;;;2.90;99.90;;;;;;4997658;28;20300;-80
2022/04/03 07:02:33;;;;;;;7.90;7.10;;;3.00;99.90;;;;;;4997624;28;20357;-81
2022/04/03 07:05:00;;;;;;;7.97;7.18;;;2.90;99.90;;;;;;4997949;28;20209;-80
2022/04/03 07:07:27;;;;;;;10.88;7.03;;;2.90;99.90;;;;;;4997407;28;20204;-81
2022/04/03 07:09:55;;;;;;;9.60;6.60;;;3.00;99.90;;;;;;5000111;28;20231;-81
2022/04/03 07:12:22;;;;;;;8.32;7.53;;;3.10;99.90;;;;;;5000340;28;20381;-81
2022/04/03 07:14:49;;;;;;;7.97;7.03;;;3.20;99.90;;;;;;5000581;28;20258;-82
2022/04/03 07:17:16;;;;;;;8.38;7.53;;;3.30;99.90;;;;;;4999581;28;20217;-82
2022/04/03 07:19:43;;;;;;;11.00;8.38;;;3.40;99.90;;;;;;4997162;28;20820;-81
2022/04/03 07:22:10;;;;;;;8.07;7.28;;;3.40;99.90;;;;;;4997467;28;20221;-82
2022/04/03 07:24:37;;;;;;;6.03;5.10;;;3.50;99.90;;;;;;4997233;28;20246;-80
2022/04/03 07:27:05;;;;;;;11.15;7.68;;;3.70;99.90;;;;;;4997371;28;20211;-81
2022/04/03 07:29:33;;;;;;;8.88;7.07;;;3.80;99.90;;;;;;4999486;28;20258;-82
2022/04/03 07:32:00;;;;;;;7.20;6.55;;;3.80;99.90;;;;;;4999339;28;20326;-81
2022/04/03 07:34:27;;;;;;;8.48;7.70;;;3.90;99.90;;;;;;4999261;28;20215;-81
2022/04/03 07:36:54;;;;;;;7.40;6.53;;;4.00;99.90;;;;;;4999111;28;20656;-81
2022/04/03 07:39:22;;;;;;;7.47;6.82;;;4.10;99.90;;;;;;4999802;28;20270;-82
2022/04/03 07:41:50;;;;;;;6.93;6.32;;;4.20;99.90;;;;;;5000654;28;20203;-81
2022/04/03 07:44:18;;;;;;;7.10;6.35;;;4.20;99.90;;;;;;5001958;28;20204;-82
2022/04/03 07:46:45;;;;;;;6.90;6.18;;;4.40;99.90;;;;;;5003299;28;20205;-82
2022/04/03 07:49:12;;;;;;;8.10;7.25;;;4.50;99.90;;;;;;5004978;28;20218;-81
2022/04/03 07:51:39;;;;;;;6.82;6.10;;;4.60;99.90;;;;;;5008427;28;20214;-81
2022/04/03 07:54:05;;;;;;;7.97;7.28;;;4.60;99.90;;;;;;5009323;28;20212;-82
2022/04/03 07:56:32;;;;;;;6.82;6.18;;;4.90;99.90;;;;;;5010644;28;20212;-81
2022/04/03 07:58:59;;;;;;;7.10;6.35;;;4.90;99.90;;;;;;5008555;28;20214;-80
2022/04/03 08:01:28;;;;;;;6.75;5.95;;;4.80;99.90;;;;;;5008281;28;20219;-80
2022/04/03 08:03:54;;;;;;;8.52;7.30;;;4.80;99.90;;;;;;5004158;28;20204;-80
2022/04/03 08:06:21;;;;;;;7.78;7.07;;;4.80;99.90;;;;;;5005039;28;20211;-81
2022/04/03 08:08:48;;;;;;;7.53;6.90;;;4.70;99.90;;;;;;5006961;28;20210;-80
2022/04/03 08:11:15;;;;;;;7.88;6.43;;;4.70;99.90;;;;;;5006507;28;20227;-80
2022/04/03 08:13:41;;;;;;;8.18;6.65;;;4.80;99.90;;;;;;4997340;28;20223;-81
2022/04/03 08:16:08;;;;;;;6.90;6.13;;;4.70;99.90;;;;;;4999927;28;20210;-82
2022/04/03 08:18:36;;;;;;;7.63;6.80;;;4.50;99.90;;;;;;4998096;28;20203;-80
2022/04/03 08:21:03;;;;;;;7.57;6.95;;;4.60;99.90;;;;;;5001667;28;20326;-80
2022/04/03 08:23:30;;;;;;;7.70;7.07;;;4.70;99.90;;;;;;5002611;28;20200;-81
2022/04/03 08:25:56;;;;;;;6.65;5.90;;;4.70;99.90;;;;;;5005318;28;20215;-82
2022/04/03 08:28:23;;;;;;;7.63;6.88;;;4.70;99.90;;;;;;5007871;28;20203;-81
2022/04/03 08:30:50;;;;;;;7.07;6.47;;;4.70;99.90;;;;;;5000593;28;20602;-81
2022/04/03 08:33:17;;;;;;;8.25;7.13;;;4.60;99.90;;;;;;4996520;28;20226;-83
2022/04/03 08:35:46;;;;;;;6.28;5.75;;;4.70;99.90;;;;;;4996050;28;20203;-81
2022/04/03 08:38:13;;;;;;;6.40;5.88;;;4.80;99.90;;;;;;4999926;28;20246;-80
2022/04/03 08:40:44;;;;;;;10.75;7.28;;;5.00;99.90;;;;;;5000435;28;20231;-81
2022/04/03 08:43:11;;;;;;;7.80;7.05;;;5.20;99.90;;;;;;5000523;28;20571;-80
2022/04/03 08:45:39;;;;;;;6.18;5.60;;;5.20;99.90;;;;;;5000693;28;20299;-80
2022/04/03 08:48:08;;;;;;;6.72;6.05;;;5.20;99.90;;;;;;4999819;28;20208;-81
2022/04/03 08:50:36;;;;;;;8.77;6.32;;;5.20;99.90;;;;;;4999290;28;20234;-80
2022/04/03 08:53:06;;;;;;;7.93;7.13;;;5.30;99.90;;;;;;4998617;28;20224;-80
2022/04/03 08:55:33;;;;;;;6.25;5.65;;;5.40;99.90;;;;;;4998179;28;20211;-80
2022/04/03 08:58:02;;;;;;;9.63;7.57;;;5.40;99.90;;;;;;4998644;28;20215;-80
2022/04/03 09:00:30;;;;;;;7.65;6.88;;;5.50;99.90;;;;;;4997887;28;20228;-80
2022/04/03 09:02:57;;;;;;;6.50;5.85;;;5.40;99.90;;;;;;5000101;28;20677;-83
2022/04/03 09:05:34;;;;;;;5.32;4.93;;;5.40;99.90;;;;;;4998927;28;20735;-80
2022/04/03 09:08:02;;;;;;;7.93;7.10;;;5.50;99.90;;;;;;4996402;28;20208;-80
2022/04/03 09:10:31;;;;;;;6.75;5.60;;;5.50;99.90;;;;;;4996920;28;20227;-80
2022/04/03 09:12:58;;;;;;;7.43;6.72;;;5.50;99.90;;;;;;4997024;28;20243;-80
2022/04/03 09:15:27;;;;;;;8.40;6.10;;;5.40;99.90;;;;;;4997090;28;20577;-82
2022/04/03 09:17:55;;;;;;;6.03;5.20;;;5.70;99.90;;;;;;4997121;28;20207;-81
2022/04/03 09:20:24;;;;;;;5.13;4.72;;;5.80;99.90;;;;;;5023631;22;20238;-81
2022/04/03 09:23:28;;;;;;;5.43;5.03;;;6.00;99.90;;;;;;5004545;28;20211;-83
2022/04/03 09:25:57;;;;;;;5.55;5.13;;;6.30;99.90;;;;;;5002893;28;20271;-85
2022/04/03 09:28:42;;;;;;;4.90;4.50;;;6.60;99.90;;;;;;5005348;28;20216;-83
2022/04/03 09:31:30;;;;;;;6.28;5.68;;;6.30;98.10;;;;;;5005007;28;20239;-84
2022/04/03 09:33:59;;;;;;;5.95;5.55;;;6.30;98.00;;;;;;5004925;28;20228;-83
2022/04/03 09:36:30;;;;;;;5.72;5.22;;;6.40;96.60;;;;;;5004967;28;20231;-83
2022/04/03 09:39:06;;;;;;;5.82;5.32;;;6.10;98.20;;;;;;5004180;28;20204;-83
2022/04/03 09:41:35;;;;;;;6.70;5.30;;;5.80;97.90;;;;;;5004060;28;20599;-84
2022/04/03 09:44:16;;;;;;;4.68;4.28;;;5.70;98.70;;;;;;5004897;28;20206;-83
2022/04/03 09:46:43;;;;;;;4.85;4.45;;;5.30;97.40;;;;;;5005489;28;20200;-84
2022/04/03 09:49:23;;;;;;;4.90;4.60;;;5.00;98.30;;;;;;5006221;28;20673;-84
2022/04/03 09:51:50;;;;;;;5.60;5.05;;;4.70;99.50;;;;;;5011394;28;20223;-81
2022/04/03 09:54:19;;;;;;;4.68;4.38;;;4.10;99.40;;;;;;5014540;28;20234;-81
2022/04/03 09:56:47;;;;;;;5.10;4.60;;;4.20;99.90;;;;;;5015003;28;20207;-81
2022/04/03 09:59:15;;;;;;;5.80;5.05;;;4.30;99.90;;;;;;5006522;28;20665;-83
2022/04/03 10:01:43;;;;;;;4.10;3.80;;;4.70;99.90;;;;;;5004191;28;20875;-83
2022/04/03 10:04:13;;;;;;;6.13;5.57;;;4.60;99.90;;;;;;5004052;28;20213;-83
2022/04/03 10:06:41;;;;;;;6.43;5.22;;;4.60;99.90;;;;;;5003897;28;20720;-82
2022/04/03 10:09:11;;;;;;;5.72;5.22;;;5.00;99.90;;;;;;5004329;28;20688;-83
2022/04/03 10:11:38;;;;;;;5.75;4.10;;;5.10;99.90;;;;;;5003177;28;20228;-83
2022/04/03 10:14:07;;;;;;;5.40;4.85;;;5.30;99.90;;;;;;5003693;28;20238;-83
2022/04/03 10:16:34;;;;;;;6.25;4.75;;;5.00;99.70;;;;;;5002833;28;20203;-83
2022/04/03 10:19:01;;;;;;;5.75;5.25;;;4.90;99.90;;;;;;5002549;28;20207;-83
2022/04/03 10:21:33;;;;;;;6.03;5.35;;;5.20;99.90;;;;;;5000684;28;20238;-82
2022/04/03 10:24:05;;;;;;;5.05;3.92;;;5.40;99.70;;;;;;5002047;28;20207;-83
2022/04/03 10:26:36;;;;;;;4.63;4.25;;;5.50;99.70;;;;;;5005503;28;20704;-83
2022/04/03 10:29:06;;;;;;;8.38;4.53;;;5.50;99.30;;;;;;5005896;28;20207;-81
2022/04/03 10:31:34;;;;;;;4.00;3.70;;;5.40;98.80;;;;;;5002905;28;20577;-82
2022/04/03 10:34:01;;;;;;;3.97;3.60;;;5.00;98.40;;;;;;4998683;28;20227;-82
2022/04/03 10:36:30;;;;;;;5.75;5.05;;;5.00;98.30;;;;;;4983595;28;20215;-83
2022/04/03 10:38:59;;;;;;;4.47;4.07;;;5.00;98.70;;;;;;5000379;28;20246;-83
2022/04/03 10:41:28;;;;;;;6.03;4.55;;;4.80;99.30;;;;;;5004210;28;20259;-84
2022/04/03 10:44:13;;;;;;;3.53;3.10;;;4.90;99.60;;;;;;5002674;28;20196;-82
2022/04/03 10:47:17;;;;;;;4.53;4.13;;;4.90;99.10;;;;;;5002659;28;20301;-82
2022/04/03 10:49:51;;;;;;;4.40;3.97;;;4.80;99.30;;;;;;4983264;28;20211;-82
2022/04/03 10:52:25;;;;;;;4.50;4.20;;;4.60;99.30;;;;;;4986262;28;20211;-83
2022/04/03 10:54:54;;;;;;;4.00;3.70;;;4.20;98.20;;;;;;5005803;28;20207;-86
2022/04/03 10:57:35;;;;;;;4.95;4.55;;;4.30;99.00;;;;;;5002150;28;20214;-82
2022/04/03 11:00:30;;;;;;;3.70;3.25;;;4.10;99.60;;;;;;5003273;28;20237;-81
2022/04/03 11:03:01;;;;;;;4.57;4.22;;;3.90;99.20;;;;;;5005237;28;20204;-83
2022/04/03 11:05:46;;;;;;;4.80;4.40;;;3.90;99.90;;;;;;5005928;28;20211;-82
2022/04/03 11:08:18;;;;;;;5.20;4.70;;;3.80;99.60;;;;;;5006585;28;20231;-83
2022/04/03 11:10:48;;;;;;;4.30;3.50;;;3.80;99.90;;;;;;5006679;28;20223;-83
2022/04/03 11:13:15;;;;;;;4.85;4.43;;;3.90;99.90;;;;;;5005968;28;20218;-83
2022/04/03 11:15:50;;;;;;;4.93;4.45;;;4.20;99.90;;;;;;5006269;28;20211;-83
2022/04/03 11:18:27;;;;;;;3.83;3.53;;;4.20;99.90;;;;;;5006042;28;20214;-83
2022/04/03 11:21:09;;;;;;;4.45;3.97;;;4.40;99.90;;;;;;5004877;28;20269;-82
2022/04/03 11:23:36;;;;;;;4.40;3.97;;;4.60;99.90;;;;;;5006380;28;20214;-83
2022/04/03 11:26:04;;;;;;;3.75;3.45;;;5.00;99.90;;;;;;5009460;28;20215;-83
2022/04/03 11:28:33;;;;;;;3.80;3.53;;;5.30;99.20;;;;;;5009161;28;20576;-83
2022/04/03 11:31:00;;;;;;;3.15;2.95;;;5.60;97.70;;;;;;5011684;28;20315;-83
2022/04/03 11:33:28;;;;;;;4.25;3.85;;;5.80;98.10;;;;;;5013820;28;20238;-83
2022/04/03 11:35:56;;;;;;;3.60;3.05;;;6.00;97.70;;;;;;5010240;28;20219;-81
2022/04/03 11:38:33;;;;;;;2.95;2.65;;;6.30;97.30;;;;;;5009197;28;20212;-82
2022/04/03 11:41:01;;;;;;;3.53;3.28;;;6.50;96.40;;;;;;5009062;28;20231;-83
2022/04/03 11:43:28;;;;;;;5.53;3.30;;;6.70;96.30;;;;;;5009158;28;20230;-83
2022/04/03 11:45:56;;;;;;;4.30;3.90;;;7.20;97.20;;;;;;5009055;28;20208;-82
2022/04/03 11:48:25;;;;;;;3.70;3.30;;;8.00;96.70;;;;;;5008193;28;20268;-82
2022/04/03 11:51:05;;;;;;;3.37;3.07;;;9.30;98.80;;;;;;5007210;28;20243;-82
2022/04/03 11:53:33;;;;;;;3.77;3.33;;;10.70;96.20;;;;;;5007883;28;20493;-82
2022/04/03 11:56:12;;;;;;;3.30;3.10;;;11.60;89.80;;;;;;5008458;28;20486;-82
2022/04/03 11:58:40;;;;;;;4.17;3.47;;;12.30;80.70;;;;;;5008517;28;20632;-81
2022/04/03 12:01:07;;;;;;;3.30;3.00;;;12.00;75.60;;;;;;5008082;28;20485;-80
2022/04/03 12:03:35;;;;;;;3.13;2.80;;;11.50;77.70;;;;;;5008471;28;20446;-82
2022/04/03 12:06:17;;;;;;;3.13;2.93;;;11.10;75.80;;;;;;5009500;28;20487;-81
2022/04/03 12:08:48;;;;;;;3.63;3.33;;;10.70;73.20;;;;;;5008335;28;20449;-81
2022/04/03 12:11:28;;;;;;;3.20;3.00;;;9.90;75.90;;;;;;5008574;28;20224;-81
2022/04/03 12:13:56;;;;;;;3.35;3.05;;;9.40;76.90;;;;;;5006437;28;20243;-81
2022/04/03 12:16:26;;;;;;;4.40;3.30;;;8.10;76.00;;;;;;5012667;28;20204;-80
2022/04/03 12:18:58;;;;;;;3.90;3.60;;;7.80;79.10;;;;;;5012804;28;20211;-82
2022/04/03 12:21:38;;;;;;;6.20;3.97;;;6.80;82.70;;;;;;5011625;28;20235;-80
2022/04/03 12:24:09;;;;;;;3.55;3.25;;;6.10;85.50;;;;;;5000873;28;20200;-81
2022/04/03 12:26:36;;;;;;;7.93;3.80;;;5.20;87.80;;;;;;5016949;28;20215;-81
2022/04/03 12:29:05;;;;;;;4.15;3.78;;;5.10;90.70;;;;;;5016347;28;20214;-81
2022/04/03 12:31:34;;;;;;;4.18;3.78;;;5.10;91.80;;;;;;5013629;28;20236;-81
2022/04/03 12:34:12;;;;;;;4.32;3.60;;;5.30;91.90;;;;;;4994574;28;20330;-81
2022/04/03 12:36:44;;;;;;;3.70;3.40;;;5.00;91.90;;;;;;4992438;28;20211;-81
2022/04/03 12:39:38;;;;;;;4.75;4.43;;;4.60;92.10;;;;;;5003204;28;20234;-81
2022/04/03 12:42:25;;;;;;;4.88;4.47;;;4.30;94.00;;;;;;5006336;28;20235;-80
2022/04/03 12:44:55;;;;;;;10.95;6.65;;;4.20;95.10;;;;;;5003292;28;20235;-80
2022/04/03 12:47:23;;;;;;;12.48;9.88;;;4.10;95.10;;;;;;5005274;28;20195;-80
2022/04/03 12:50:08;;;;;;;6.10;4.65;;;3.60;94.80;;;;;;5003029;28;20441;-80
2022/04/03 12:52:40;;;;;;;4.97;4.53;;;3.30;96.00;;;;;;5006477;28;20205;-80